| time (UTC) | temp F | wind direction | speed MPH | gust MPH | rain 1hr in | rain 24hr in | rain mn in | humidity % | barometer mb |
| 20260507003036 | 71 | 230 | 5.0 | 11.0 | 0.00 | 0.00 | 0.00 | 57 | 1014.3 |
| 20260507001536 | 71 | 255 | 8.0 | 11.0 | 0.00 | 0.00 | 0.00 | 57 | 1014.3 |
| 20260507000037 | 72 | 256 | 7.0 | 10.0 | 0.00 | 0.00 | 0.00 | 56 | 1014.3 |
| 20260506234543 | 72 | 199 | 6.0 | 10.0 | 0.00 | 0.00 | 0.00 | 56 | 1014.3 |
| 20260506233035 | 73 | 224 | 6.0 | 13.0 | 0.00 | 0.00 | 0.00 | 56 | 1014.2 |
| 20260506231534 | 73 | 239 | 7.0 | 15.0 | 0.00 | 0.00 | 0.00 | 56 | 1014.2 |
| 20260506230034 | 73 | 239 | 8.0 | 14.0 | 0.00 | 0.00 | 0.00 | 56 | 1014.3 |
| 20260506224532 | 73 | 237 | 9.0 | 15.0 | 0.00 | 0.00 | 0.00 | 56 | 1014.5 |
| 20260506223031 | 73 | 217 | 9.0 | 17.0 | 0.00 | 0.00 | 0.00 | 55 | 1014.6 |
| 20260506221527 | 73 | 271 | 8.0 | 16.0 | 0.00 | 0.00 | 0.00 | 56 | 1014.8 |
| 20260506220034 | 73 | 262 | 10.0 | 16.0 | 0.00 | 0.00 | 0.00 | 57 | 1015.1 |
| 20260506214525 | 73 | 260 | 9.0 | 15.0 | 0.00 | 0.00 | 0.00 | 56 | 1015.3 |
| 20260506213029 | 73 | 264 | 8.0 | 17.0 | 0.00 | 0.00 | 0.00 | 56 | 1015.4 |
| 20260506211524 | 73 | 267 | 10.0 | 15.0 | 0.00 | 0.00 | 0.00 | 58 | 1015.5 |
| 20260506210025 | 72 | 240 | 6.0 | 16.0 | 0.00 | 0.00 | 0.00 | 58 | 1015.6 |
| 20260506204520 | 72 | 180 | 10.0 | 15.0 | 0.00 | 0.00 | 0.00 | 58 | 1015.7 |
| 20260506203024 | 72 | 270 | 9.0 | 17.0 | 0.00 | 0.00 | 0.00 | 58 | 1015.8 |
| 20260506201516 | 72 | 240 | 8.0 | 17.0 | 0.00 | 0.00 | 0.00 | 58 | 1016.0 |
| 20260506200014 | 72 | 232 | 5.0 | 13.0 | 0.00 | 0.00 | 0.00 | 54 | 1016.0 |
| 20260506194512 | 72 | 217 | 7.0 | 16.0 | 0.00 | 0.00 | 0.00 | 53 | 1016.1 |
| 20260506193009 | 71 | 269 | 8.0 | 15.0 | 0.00 | 0.00 | 0.00 | 55 | 1016.2 |
| 20260506191506 | 70 | 252 | 3.0 | 15.0 | 0.00 | 0.00 | 0.00 | 55 | 1016.4 |
| 20260506184605 | 69 | 279 | 6.0 | 13.0 | 0.00 | 0.00 | 0.00 | 58 | 1016.7 |
| 20260506183103 | 68 | 285 | 7.0 | 13.0 | 0.00 | 0.00 | 0.00 | 57 | 1016.8 |
| 20260506181555 | 68 | 246 | 6.0 | 14.0 | 0.00 | 0.00 | 0.00 | 58 | 1017.0 |
| 20260506180045 | 67 | 251 | 5.0 | 12.0 | 0.00 | 0.00 | 0.00 | 60 | 1017.1 |
| 20260506174543 | 66 | 285 | 5.0 | 9.0 | 0.00 | 0.00 | 0.00 | 63 | 1017.0 |
| 20260506173045 | 65 | 265 | 6.0 | 11.0 | 0.00 | 0.00 | 0.00 | 62 | 1017.1 |
| 20260506171542 | 64 | 218 | 5.0 | 9.0 | 0.00 | 0.00 | 0.00 | 65 | 1017.2 |
| 20260506170035 | 64 | 271 | 3.0 | 8.0 | 0.00 | 0.00 | 0.00 | 65 | 1017.4 |
| 20260506164526 | 63 | 268 | 2.0 | 6.0 | 0.00 | 0.00 | 0.00 | 65 | 1017.4 |
| 20260506163025 | 62 | 169 | 0.0 | 4.0 | 0.00 | 0.00 | 0.00 | 69 | 1017.4 |
| 20260506161522 | 60 | 23 | 2.0 | 8.0 | 0.00 | 0.00 | 0.00 | 73 | 1017.5 |
| 20260506160019 | 58 | 33 | 6.0 | 9.0 | 0.00 | 0.00 | 0.00 | 75 | 1017.7 |
| 20260506154510 | 57 | 17 | 5.0 | 10.0 | 0.00 | 0.00 | 0.00 | 78 | 1017.6 |
| 20260506153006 | 55 | 53 | 7.0 | 11.0 | 0.00 | 0.00 | 0.00 | 80 | 1017.8 |
| 20260506151501 | 54 | 30 | 5.0 | 10.0 | 0.00 | 0.00 | 0.00 | 84 | 1017.9 |
| 20260506144601 | 51 | 39 | 8.0 | 12.0 | 0.00 | 0.00 | 0.00 | 88 | 1018.1 |
| 20260506143054 | 50 | 42 | 7.0 | 11.0 | 0.00 | 0.00 | 0.00 | 89 | 1017.9 |
| 20260506141545 | 50 | 46 | 6.0 | 10.0 | 0.00 | 0.00 | 0.00 | 90 | 1017.9 |
| 20260506140041 | 49 | 35 | 5.0 | 10.0 | 0.00 | 0.00 | 0.00 | 92 | 1017.7 |
| 20260506134537 | 48 | 61 | 3.0 | 10.0 | 0.00 | 0.00 | 0.00 | 92 | 1017.6 |
| 20260506133039 | 48 | 42 | 7.0 | 11.0 | 0.00 | 0.00 | 0.00 | 93 | 1017.5 |
| 20260506131531 | 47 | 69 | 4.0 | 7.0 | 0.00 | 0.00 | 0.00 | 92 | 1017.5 |
| 20260506130031 | 47 | 53 | 3.0 | 7.0 | 0.00 | 0.00 | 0.00 | 92 | 1017.3 |
| 20260506124526 | 47 | 53 | 4.0 | 6.0 | 0.00 | 0.00 | 0.00 | 92 | 1017.5 |
| 20260506123024 | 47 | 71 | 2.0 | 6.0 | 0.00 | 0.00 | 0.00 | 91 | 1017.1 |
| 20260506121521 | 48 | 83 | 3.0 | 6.0 | 0.00 | 0.00 | 0.00 | 92 | 1017.0 |
| 20260506120021 | 48 | 66 | 2.0 | 7.0 | 0.00 | 0.00 | 0.00 | 91 | 1017.1 |
| 20260506114528 | 48 | 46 | 3.0 | 6.0 | 0.00 | 0.00 | 0.00 | 92 | 1017.0 |
| 20260506113020 | 47 | 46 | 2.0 | 6.0 | 0.00 | 0.00 | 0.00 | 92 | 1016.9 |
| 20260506111519 | 47 | 69 | 2.0 | 6.0 | 0.00 | 0.00 | 0.00 | 91 | 1016.9 |
| 20260506110017 | 47 | 76 | 2.0 | 5.0 | 0.00 | 0.00 | 0.00 | 91 | 1016.8 |
| 20260506104515 | 49 | 44 | 4.0 | 7.0 | 0.00 | 0.00 | 0.00 | 90 | 1016.9 |
| 20260506103016 | 49 | 52 | 3.0 | 6.0 | 0.00 | 0.00 | 0.00 | 92 | 1016.8 |
| 20260506101518 | 48 | 29 | 4.0 | 10.0 | 0.00 | 0.00 | 0.00 | 91 | 1016.8 |
| 20260506100010 | 48 | 82 | 2.0 | 5.0 | 0.00 | 0.00 | 0.00 | 90 | 1016.8 |
| 20260506094514 | 48 | 90 | 1.0 | 5.0 | 0.00 | 0.00 | 0.00 | 90 | 1017.0 |
| 20260506093007 | 49 | 65 | 0.0 | 4.0 | 0.00 | 0.00 | 0.00 | 90 | 1017.0 |
| 20260506091504 | 50 | 31 | 0.0 | 3.0 | 0.00 | 0.00 | 0.00 | 91 | 1017.0 |
| 20260506090006 | 49 | 100 | 1.0 | 4.0 | 0.00 | 0.00 | 0.00 | 91 | 1017.1 |
| 20260506084503 | 49 | 55 | 1.0 | 3.0 | 0.00 | 0.00 | 0.00 | 89 | 1017.1 |
| 20260506083059 | 49 | 62 | 1.0 | 2.0 | 0.00 | 0.00 | 0.00 | 89 | 1017.1 |
| 20260506081555 | 50 | 57 | 0.0 | 1.0 | 0.00 | 0.00 | 0.00 | 89 | 1017.3 |
| 20260506073048 | 51 | 57 | 0.0 | 2.0 | 0.00 | 0.00 | 0.00 | 87 | 1017.1 |
| 20260506071600 | 51 | 193 | 0.0 | 0.0 | 0.00 | 0.00 | 0.00 | 87 | 1017.0 |
| 20260506061535 | 54 | 193 | 0.0 | 3.0 | 0.00 | 0.00 | 0.00 | 85 | 1016.1 |
| 20260506044528 | 56 | 212 | 1.0 | 4.0 | 0.00 | 0.00 | 0.00 | 80 | 1015.3 |
| 20260506043027 | 57 | 178 | 1.0 | 4.0 | 0.00 | 0.00 | 0.00 | 80 | 1015.2 |
| 20260506041530 | 57 | 198 | 0.0 | 4.0 | 0.00 | 0.00 | 0.00 | 79 | 1015.0 |
| 20260506040026 | 58 | 221 | 1.0 | 4.0 | 0.00 | 0.00 | 0.00 | 78 | 1014.7 |
| 20260506034520 | 58 | 232 | 2.0 | 6.0 | 0.00 | 0.00 | 0.00 | 77 | 1014.4 |
| 20260506033026 | 59 | 234 | 0.0 | 3.0 | 0.00 | 0.00 | 0.00 | 75 | 1014.3 |
| 20260506031523 | 60 | 178 | 1.0 | 5.0 | 0.00 | 0.00 | 0.00 | 74 | 1014.1 |
| 20260506030022 | 60 | 148 | 5.0 | 9.0 | 0.00 | 0.00 | 0.00 | 72 | 1013.8 |
| 20260506024516 | 61 | 287 | 1.0 | 4.0 | 0.00 | 0.00 | 0.00 | 70 | 1013.5 |
| 20260506023016 | 62 | 262 | 2.0 | 6.0 | 0.00 | 0.00 | 0.00 | 69 | 1013.2 |
| 20260506021515 | 63 | 219 | 4.0 | 8.0 | 0.00 | 0.00 | 0.00 | 68 | 1013.1 |
| 20260506020020 | 63 | 214 | 6.0 | 8.0 | 0.00 | 0.00 | 0.00 | 67 | 1012.9 |
| 20260506014518 | 63 | 218 | 5.0 | 10.0 | 0.00 | 0.00 | 0.00 | 67 | 1012.9 |
| 20260506013023 | 64 | 232 | 5.0 | 12.0 | 0.00 | 0.00 | 0.00 | 67 | 1012.9 |
| 20260506011514 | 64 | 230 | 5.0 | 11.0 | 0.00 | 0.00 | 0.00 | 65 | 1013.0 |
| 20260506010020 | 64 | 237 | 6.0 | 11.0 | 0.00 | 0.00 | 0.00 | 63 | 1012.8 |
| 20260506004518 | 64 | 230 | 6.0 | 11.0 | 0.00 | 0.00 | 0.00 | 63 | 1012.8 |